sensor_id;sensor_type;location;lat;lon;timestamp;temperature;humidity
4749;DHT22;2388;53.582;9.962;2023-08-31T00:00:49;15.10;99.90
4749;DHT22;2388;53.582;9.962;2023-08-31T00:03:16;15.10;99.90
4749;DHT22;2388;53.582;9.962;2023-08-31T00:05:43;15.10;99.90
4749;DHT22;2388;53.582;9.962;2023-08-31T00:08:09;15.10;99.90
4749;DHT22;2388;53.582;9.962;2023-08-31T00:10:35;15.10;99.90
4749;DHT22;2388;53.582;9.962;2023-08-31T00:13:05;15.10;99.90
4749;DHT22;2388;53.582;9.962;2023-08-31T00:15:32;14.90;99.90
4749;DHT22;2388;53.582;9.962;2023-08-31T00:18:03;14.90;99.90
4749;DHT22;2388;53.582;9.962;2023-08-31T00:20:31;15.00;99.90
4749;DHT22;2388;53.582;9.962;2023-08-31T00:22:56;15.00;99.90
4749;DHT22;2388;53.582;9.962;2023-08-31T00:25:22;15.00;99.90
4749;DHT22;2388;53.582;9.962;2023-08-31T00:27:47;14.90;99.90
4749;DHT22;2388;53.582;9.962;2023-08-31T00:30:13;14.90;99.90
4749;DHT22;2388;53.582;9.962;2023-08-31T00:32:39;14.90;99.90
4749;DHT22;2388;53.582;9.962;2023-08-31T00:35:05;14.80;99.90
4749;DHT22;2388;53.582;9.962;2023-08-31T00:37:31;14.80;99.90
4749;DHT22;2388;53.582;9.962;2023-08-31T00:39:56;14.80;99.90
4749;DHT22;2388;53.582;9.962;2023-08-31T00:42:22;14.80;99.90
4749;DHT22;2388;53.582;9.962;2023-08-31T00:44:48;14.80;99.90
4749;DHT22;2388;53.582;9.962;2023-08-31T00:47:14;14.80;99.90
4749;DHT22;2388;53.582;9.962;2023-08-31T00:49:41;14.80;99.90
4749;DHT22;2388;53.582;9.962;2023-08-31T00:52:07;14.70;99.90
4749;DHT22;2388;53.582;9.962;2023-08-31T00:54:33;14.70;99.90
4749;DHT22;2388;53.582;9.962;2023-08-31T00:56:59;14.60;99.90
4749;DHT22;2388;53.582;9.962;2023-08-31T00:59:25;14.70;99.90
4749;DHT22;2388;53.582;9.962;2023-08-31T01:01:59;14.60;99.90
4749;DHT22;2388;53.582;9.962;2023-08-31T01:08:27;14.50;99.90
4749;DHT22;2388;53.582;9.962;2023-08-31T01:10:32;14.50;99.90
4749;DHT22;2388;53.582;9.962;2023-08-31T01:13:03;14.40;99.90
4749;DHT22;2388;53.582;9.962;2023-08-31T01:15:36;14.40;99.90
4749;DHT22;2388;53.582;9.962;2023-08-31T01:18:04;14.30;99.90
4749;DHT22;2388;53.582;9.962;2023-08-31T01:20:34;14.30;99.90
4749;DHT22;2388;53.582;9.962;2023-08-31T01:23:13;14.20;99.90
4749;DHT22;2388;53.582;9.962;2023-08-31T01:25:41;14.20;99.90
4749;DHT22;2388;53.582;9.962;2023-08-31T01:28:08;14.20;99.90
4749;DHT22;2388;53.582;9.962;2023-08-31T01:30:35;14.20;99.90
4749;DHT22;2388;53.582;9.962;2023-08-31T01:33:01;14.20;99.90
4749;DHT22;2388;53.582;9.962;2023-08-31T01:35:34;14.10;99.90
4749;DHT22;2388;53.582;9.962;2023-08-31T01:38:03;14.20;99.90
4749;DHT22;2388;53.582;9.962;2023-08-31T01:40:38;14.20;99.90
4749;DHT22;2388;53.582;9.962;2023-08-31T01:43:06;14.20;99.90
4749;DHT22;2388;53.582;9.962;2023-08-31T01:45:32;14.20;99.90
4749;DHT22;2388;53.582;9.962;2023-08-31T01:48:01;14.20;99.90
4749;DHT22;2388;53.582;9.962;2023-08-31T01:50:27;14.20;99.90
4749;DHT22;2388;53.582;9.962;2023-08-31T01:52:52;14.20;99.90
4749;DHT22;2388;53.582;9.962;2023-08-31T01:55:24;14.20;99.90
4749;DHT22;2388;53.582;9.962;2023-08-31T01:57:50;14.20;99.90
4749;DHT22;2388;53.582;9.962;2023-08-31T02:00:17;14.20;99.90
4749;DHT22;2388;53.582;9.962;2023-08-31T02:02:43;14.20;99.90
4749;DHT22;2388;53.582;9.962;2023-08-31T02:05:09;14.10;99.90
4749;DHT22;2388;53.582;9.962;2023-08-31T02:07:35;14.10;99.90
4749;DHT22;2388;53.582;9.962;2023-08-31T02:10:01;14.10;99.90
4749;DHT22;2388;53.582;9.962;2023-08-31T02:12:26;14.00;99.90
4749;DHT22;2388;53.582;9.962;2023-08-31T02:14:51;14.00;99.90
4749;DHT22;2388;53.582;9.962;2023-08-31T02:17:17;14.00;99.90
4749;DHT22;2388;53.582;9.962;2023-08-31T02:19:42;14.00;99.90
4749;DHT22;2388;53.582;9.962;2023-08-31T02:22:08;14.00;99.90
4749;DHT22;2388;53.582;9.962;2023-08-31T02:24:34;13.90;99.90
4749;DHT22;2388;53.582;9.962;2023-08-31T02:26:59;14.00;99.90
4749;DHT22;2388;53.582;9.962;2023-08-31T02:29:25;14.00;99.90
4749;DHT22;2388;53.582;9.962;2023-08-31T02:31:50;13.90;99.90
4749;DHT22;2388;53.582;9.962;2023-08-31T02:34:16;13.90;99.90
4749;DHT22;2388;53.582;9.962;2023-08-31T02:36:41;13.90;99.90
4749;DHT22;2388;53.582;9.962;2023-08-31T02:39:07;13.80;99.90
4749;DHT22;2388;53.582;9.962;2023-08-31T02:41:32;13.80;99.90
4749;DHT22;2388;53.582;9.962;2023-08-31T02:43:58;13.80;99.90
4749;DHT22;2388;53.582;9.962;2023-08-31T02:46:23;13.80;99.90
4749;DHT22;2388;53.582;9.962;2023-08-31T02:48:50;13.80;99.90
4749;DHT22;2388;53.582;9.962;2023-08-31T02:51:15;13.80;99.90
4749;DHT22;2388;53.582;9.962;2023-08-31T02:53:41;13.70;99.90
4749;DHT22;2388;53.582;9.962;2023-08-31T02:56:06;13.70;99.90
4749;DHT22;2388;53.582;9.962;2023-08-31T02:58:33;13.70;99.90
4749;DHT22;2388;53.582;9.962;2023-08-31T03:01:12;13.70;99.90
4749;DHT22;2388;53.582;9.962;2023-08-31T03:03:38;13.70;99.90
4749;DHT22;2388;53.582;9.962;2023-08-31T03:06:08;13.60;99.90
4749;DHT22;2388;53.582;9.962;2023-08-31T03:08:35;13.60;99.90
4749;DHT22;2388;53.582;9.962;2023-08-31T03:11:02;13.60;99.90
4749;DHT22;2388;53.582;9.962;2023-08-31T03:13:27;13.50;99.90
4749;DHT22;2388;53.582;9.962;2023-08-31T03:15:53;13.50;99.90
4749;DHT22;2388;53.582;9.962;2023-08-31T03:18:18;13.50;99.90
4749;DHT22;2388;53.582;9.962;2023-08-31T03:20:44;13.50;99.90
4749;DHT22;2388;53.582;9.962;2023-08-31T03:23:09;13.40;99.90
4749;DHT22;2388;53.582;9.962;2023-08-31T03:25:36;13.40;99.90
4749;DHT22;2388;53.582;9.962;2023-08-31T03:28:02;13.40;99.90
4749;DHT22;2388;53.582;9.962;2023-08-31T03:30:28;13.40;99.90
4749;DHT22;2388;53.582;9.962;2023-08-31T03:32:54;13.30;99.90
4749;DHT22;2388;53.582;9.962;2023-08-31T03:35:19;13.30;99.90
4749;DHT22;2388;53.582;9.962;2023-08-31T03:37:48;13.40;99.90
4749;DHT22;2388;53.582;9.962;2023-08-31T03:40:13;13.40;99.90
4749;DHT22;2388;53.582;9.962;2023-08-31T03:42:39;13.30;99.90
4749;DHT22;2388;53.582;9.962;2023-08-31T03:45:05;13.30;99.90
4749;DHT22;2388;53.582;9.962;2023-08-31T03:47:30;13.30;99.90
4749;DHT22;2388;53.582;9.962;2023-08-31T03:49:56;13.30;99.90
4749;DHT22;2388;53.582;9.962;2023-08-31T03:52:22;13.30;99.90
4749;DHT22;2388;53.582;9.962;2023-08-31T03:54:48;13.20;99.90
4749;DHT22;2388;53.582;9.962;2023-08-31T03:57:14;13.20;99.90
4749;DHT22;2388;53.582;9.962;2023-08-31T03:59:39;13.20;99.90
4749;DHT22;2388;53.582;9.962;2023-08-31T04:02:05;13.20;99.90
4749;DHT22;2388;53.582;9.962;2023-08-31T04:04:31;13.20;99.90
4749;DHT22;2388;53.582;9.962;2023-08-31T04:06:57;13.20;99.90
4749;DHT22;2388;53.582;9.962;2023-08-31T04:09:23;13.10;99.90
4749;DHT22;2388;53.582;9.962;2023-08-31T04:11:48;13.20;99.90
4749;DHT22;2388;53.582;9.962;2023-08-31T04:14:14;13.20;99.90
4749;DHT22;2388;53.582;9.962;2023-08-31T04:16:39;13.20;99.90
4749;DHT22;2388;53.582;9.962;2023-08-31T04:19:05;13.20;99.90
4749;DHT22;2388;53.582;9.962;2023-08-31T04:21:31;13.20;99.90
4749;DHT22;2388;53.582;9.962;2023-08-31T04:23:56;13.10;99.90
4749;DHT22;2388;53.582;9.962;2023-08-31T04:26:25;13.10;99.90
4749;DHT22;2388;53.582;9.962;2023-08-31T04:28:50;13.10;99.90
4749;DHT22;2388;53.582;9.962;2023-08-31T04:31:16;13.10;99.90
4749;DHT22;2388;53.582;9.962;2023-08-31T04:33:41;13.10;99.90
4749;DHT22;2388;53.582;9.962;2023-08-31T04:36:06;13.00;99.90
4749;DHT22;2388;53.582;9.962;2023-08-31T04:38:33;13.00;99.90
4749;DHT22;2388;53.582;9.962;2023-08-31T04:40:59;13.00;99.90
4749;DHT22;2388;53.582;9.962;2023-08-31T04:43:25;13.00;99.90
4749;DHT22;2388;53.582;9.962;2023-08-31T04:45:52;13.00;99.90
4749;DHT22;2388;53.582;9.962;2023-08-31T04:48:17;13.00;99.90
4749;DHT22;2388;53.582;9.962;2023-08-31T04:50:43;13.00;99.90
4749;DHT22;2388;53.582;9.962;2023-08-31T04:53:08;12.90;99.90
4749;DHT22;2388;53.582;9.962;2023-08-31T04:55:34;12.90;99.90
4749;DHT22;2388;53.582;9.962;2023-08-31T04:57:59;13.10;99.90
4749;DHT22;2388;53.582;9.962;2023-08-31T05:00:25;13.20;99.90
4749;DHT22;2388;53.582;9.962;2023-08-31T05:02:50;13.30;99.90
4749;DHT22;2388;53.582;9.962;2023-08-31T05:05:16;13.40;99.90
4749;DHT22;2388;53.582;9.962;2023-08-31T05:07:43;13.40;99.90
4749;DHT22;2388;53.582;9.962;2023-08-31T05:10:09;13.30;99.90
4749;DHT22;2388;53.582;9.962;2023-08-31T05:12:35;13.20;99.90
4749;DHT22;2388;53.582;9.962;2023-08-31T05:15:01;13.10;99.90
4749;DHT22;2388;53.582;9.962;2023-08-31T05:17:26;13.00;99.90
4749;DHT22;2388;53.582;9.962;2023-08-31T05:19:51;13.00;99.90
4749;DHT22;2388;53.582;9.962;2023-08-31T05:22:17;12.90;99.90
4749;DHT22;2388;53.582;9.962;2023-08-31T05:24:43;12.90;99.90
4749;DHT22;2388;53.582;9.962;2023-08-31T05:27:08;12.90;99.90
4749;DHT22;2388;53.582;9.962;2023-08-31T05:29:34;12.80;99.90
4749;DHT22;2388;53.582;9.962;2023-08-31T05:31:59;12.80;99.90
4749;DHT22;2388;53.582;9.962;2023-08-31T05:34:25;12.90;99.90
4749;DHT22;2388;53.582;9.962;2023-08-31T05:36:51;12.80;99.90
4749;DHT22;2388;53.582;9.962;2023-08-31T05:39:16;12.80;99.90
4749;DHT22;2388;53.582;9.962;2023-08-31T05:41:42;12.80;99.90
4749;DHT22;2388;53.582;9.962;2023-08-31T05:44:09;12.80;99.90
4749;DHT22;2388;53.582;9.962;2023-08-31T05:46:35;12.80;99.90
4749;DHT22;2388;53.582;9.962;2023-08-31T05:49:00;12.80;99.90
4749;DHT22;2388;53.582;9.962;2023-08-31T05:51:26;12.80;99.90
4749;DHT22;2388;53.582;9.962;2023-08-31T05:53:52;12.80;99.90
4749;DHT22;2388;53.582;9.962;2023-08-31T05:56:19;12.80;99.90
4749;DHT22;2388;53.582;9.962;2023-08-31T05:58:45;12.80;99.90
4749;DHT22;2388;53.582;9.962;2023-08-31T06:01:10;12.90;99.90
4749;DHT22;2388;53.582;9.962;2023-08-31T06:03:36;12.90;99.90
4749;DHT22;2388;53.582;9.962;2023-08-31T06:06:02;12.90;99.90
4749;DHT22;2388;53.582;9.962;2023-08-31T06:08:28;12.90;99.90
4749;DHT22;2388;53.582;9.962;2023-08-31T06:10:55;13.00;99.90
4749;DHT22;2388;53.582;9.962;2023-08-31T06:13:21;13.00;99.90
4749;DHT22;2388;53.582;9.962;2023-08-31T06:15:46;13.00;99.90
4749;DHT22;2388;53.582;9.962;2023-08-31T06:18:12;13.00;99.90
4749;DHT22;2388;53.582;9.962;2023-08-31T06:20:38;13.00;99.90
4749;DHT22;2388;53.582;9.962;2023-08-31T06:23:03;13.10;99.90
4749;DHT22;2388;53.582;9.962;2023-08-31T06:25:29;13.10;99.90
4749;DHT22;2388;53.582;9.962;2023-08-31T06:27:54;13.20;99.90
4749;DHT22;2388;53.582;9.962;2023-08-31T06:30:20;13.20;99.90
4749;DHT22;2388;53.582;9.962;2023-08-31T06:32:46;13.20;99.90
4749;DHT22;2388;53.582;9.962;2023-08-31T06:35:13;13.20;99.90
4749;DHT22;2388;53.582;9.962;2023-08-31T06:37:39;13.30;99.90
4749;DHT22;2388;53.582;9.962;2023-08-31T06:40:06;13.30;99.90
4749;DHT22;2388;53.582;9.962;2023-08-31T06:42:33;13.30;99.90
4749;DHT22;2388;53.582;9.962;2023-08-31T06:44:59;13.30;99.90
4749;DHT22;2388;53.582;9.962;2023-08-31T06:47:24;13.30;99.90
4749;DHT22;2388;53.582;9.962;2023-08-31T06:49:50;13.40;99.90
4749;DHT22;2388;53.582;9.962;2023-08-31T06:52:20;13.30;99.90
4749;DHT22;2388;53.582;9.962;2023-08-31T06:54:45;13.30;99.90
4749;DHT22;2388;53.582;9.962;2023-08-31T06:57:11;13.40;99.90
4749;DHT22;2388;53.582;9.962;2023-08-31T06:59:36;13.40;99.90
4749;DHT22;2388;53.582;9.962;2023-08-31T07:02:02;13.50;99.90
4749;DHT22;2388;53.582;9.962;2023-08-31T07:04:27;13.50;99.90
4749;DHT22;2388;53.582;9.962;2023-08-31T07:06:53;13.50;99.90
4749;DHT22;2388;53.582;9.962;2023-08-31T07:09:19;13.50;99.90
4749;DHT22;2388;53.582;9.962;2023-08-31T07:11:44;13.60;99.90
4749;DHT22;2388;53.582;9.962;2023-08-31T07:14:10;13.60;99.90
4749;DHT22;2388;53.582;9.962;2023-08-31T07:16:35;13.60;99.90
4749;DHT22;2388;53.582;9.962;2023-08-31T07:19:01;13.70;99.90
4749;DHT22;2388;53.582;9.962;2023-08-31T07:21:26;13.70;99.90
4749;DHT22;2388;53.582;9.962;2023-08-31T07:23:53;13.80;99.90
4749;DHT22;2388;53.582;9.962;2023-08-31T07:26:19;13.80;99.90
4749;DHT22;2388;53.582;9.962;2023-08-31T07:28:44;14.00;99.90
4749;DHT22;2388;53.582;9.962;2023-08-31T07:31:10;14.00;99.90
4749;DHT22;2388;53.582;9.962;2023-08-31T07:33:35;14.00;99.90
4749;DHT22;2388;53.582;9.962;2023-08-31T07:36:02;14.00;99.90
4749;DHT22;2388;53.582;9.962;2023-08-31T07:38:30;14.10;99.90
4749;DHT22;2388;53.582;9.962;2023-08-31T07:40:56;14.20;99.90
4749;DHT22;2388;53.582;9.962;2023-08-31T07:43:21;14.20;99.90
4749;DHT22;2388;53.582;9.962;2023-08-31T07:45:47;14.30;99.90
4749;DHT22;2388;53.582;9.962;2023-08-31T07:48:13;14.30;99.90
4749;DHT22;2388;53.582;9.962;2023-08-31T07:50:41;14.40;99.90
4749;DHT22;2388;53.582;9.962;2023-08-31T07:53:06;14.40;99.90
4749;DHT22;2388;53.582;9.962;2023-08-31T07:55:32;14.50;99.90
4749;DHT22;2388;53.582;9.962;2023-08-31T07:57:58;14.60;99.90
4749;DHT22;2388;53.582;9.962;2023-08-31T08:00:23;14.70;99.90
4749;DHT22;2388;53.582;9.962;2023-08-31T08:02:49;14.80;99.90
4749;DHT22;2388;53.582;9.962;2023-08-31T08:05:14;15.00;99.90
4749;DHT22;2388;53.582;9.962;2023-08-31T08:07:40;15.00;99.90
4749;DHT22;2388;53.582;9.962;2023-08-31T08:10:08;14.90;99.90
4749;DHT22;2388;53.582;9.962;2023-08-31T08:12:41;14.90;99.90
4749;DHT22;2388;53.582;9.962;2023-08-31T08:15:11;14.90;99.90
4749;DHT22;2388;53.582;9.962;2023-08-31T08:17:36;14.80;99.90
4749;DHT22;2388;53.582;9.962;2023-08-31T08:20:02;14.80;99.90
4749;DHT22;2388;53.582;9.962;2023-08-31T08:22:29;14.80;99.90
4749;DHT22;2388;53.582;9.962;2023-08-31T08:24:54;14.90;99.90
4749;DHT22;2388;53.582;9.962;2023-08-31T08:27:20;14.90;99.90
4749;DHT22;2388;53.582;9.962;2023-08-31T08:29:46;15.00;99.90
4749;DHT22;2388;53.582;9.962;2023-08-31T08:32:12;15.00;99.90
4749;DHT22;2388;53.582;9.962;2023-08-31T08:34:38;14.90;99.90
4749;DHT22;2388;53.582;9.962;2023-08-31T08:37:03;14.90;99.90
4749;DHT22;2388;53.582;9.962;2023-08-31T08:39:30;14.80;99.90
4749;DHT22;2388;53.582;9.962;2023-08-31T08:41:58;14.80;99.90
4749;DHT22;2388;53.582;9.962;2023-08-31T08:44:25;14.80;99.90
4749;DHT22;2388;53.582;9.962;2023-08-31T08:46:52;14.90;99.90
4749;DHT22;2388;53.582;9.962;2023-08-31T08:49:18;14.90;99.90
4749;DHT22;2388;53.582;9.962;2023-08-31T08:51:45;15.00;99.90
4749;DHT22;2388;53.582;9.962;2023-08-31T08:54:13;15.00;99.90
4749;DHT22;2388;53.582;9.962;2023-08-31T08:56:38;15.10;99.90
4749;DHT22;2388;53.582;9.962;2023-08-31T08:59:05;15.20;99.90
4749;DHT22;2388;53.582;9.962;2023-08-31T09:01:32;15.20;99.90
4749;DHT22;2388;53.582;9.962;2023-08-31T09:03:59;15.20;99.90
4749;DHT22;2388;53.582;9.962;2023-08-31T09:06:26;15.20;99.90
4749;DHT22;2388;53.582;9.962;2023-08-31T09:08:55;15.20;99.90
4749;DHT22;2388;53.582;9.962;2023-08-31T09:11:24;15.30;99.90
4749;DHT22;2388;53.582;9.962;2023-08-31T09:13:51;15.40;99.90
4749;DHT22;2388;53.582;9.962;2023-08-31T09:16:27;15.50;99.90
4749;DHT22;2388;53.582;9.962;2023-08-31T09:18:57;15.70;99.90
4749;DHT22;2388;53.582;9.962;2023-08-31T09:21:35;15.70;99.90
4749;DHT22;2388;53.582;9.962;2023-08-31T09:24:00;15.80;99.90
4749;DHT22;2388;53.582;9.962;2023-08-31T09:26:26;15.90;99.90
4749;DHT22;2388;53.582;9.962;2023-08-31T09:28:52;15.80;99.90
4749;DHT22;2388;53.582;9.962;2023-08-31T09:31:17;15.80;99.90
4749;DHT22;2388;53.582;9.962;2023-08-31T09:33:52;15.60;99.90
4749;DHT22;2388;53.582;9.962;2023-08-31T09:36:19;15.50;99.90
4749;DHT22;2388;53.582;9.962;2023-08-31T09:38:45;15.30;99.90
4749;DHT22;2388;53.582;9.962;2023-08-31T09:41:11;15.30;99.90
4749;DHT22;2388;53.582;9.962;2023-08-31T09:43:37;15.20;99.90
4749;DHT22;2388;53.582;9.962;2023-08-31T09:46:03;15.20;99.90
4749;DHT22;2388;53.582;9.962;2023-08-31T09:48:30;15.20;99.90
4749;DHT22;2388;53.582;9.962;2023-08-31T09:50:56;15.20;99.90
4749;DHT22;2388;53.582;9.962;2023-08-31T09:53:24;15.20;99.90
4749;DHT22;2388;53.582;9.962;2023-08-31T09:55:51;15.20;99.90
4749;DHT22;2388;53.582;9.962;2023-08-31T09:58:19;15.30;99.90
4749;DHT22;2388;53.582;9.962;2023-08-31T10:00:46;15.30;99.90
4749;DHT22;2388;53.582;9.962;2023-08-31T10:03:17;15.40;99.90
4749;DHT22;2388;53.582;9.962;2023-08-31T10:05:48;15.30;99.90
4749;DHT22;2388;53.582;9.962;2023-08-31T10:08:15;15.40;99.90
4749;DHT22;2388;53.582;9.962;2023-08-31T10:10:41;15.50;99.90
4749;DHT22;2388;53.582;9.962;2023-08-31T10:13:07;15.60;99.90
4749;DHT22;2388;53.582;9.962;2023-08-31T10:15:36;15.60;99.90
4749;DHT22;2388;53.582;9.962;2023-08-31T10:18:04;15.70;99.90
4749;DHT22;2388;53.582;9.962;2023-08-31T10:20:30;15.70;99.90
4749;DHT22;2388;53.582;9.962;2023-08-31T10:23:04;15.70;99.90
4749;DHT22;2388;53.582;9.962;2023-08-31T10:28:25;15.80;99.90
4749;DHT22;2388;53.582;9.962;2023-08-31T10:31:04;15.90;99.90
4749;DHT22;2388;53.582;9.962;2023-08-31T10:33:43;16.00;99.90
4749;DHT22;2388;53.582;9.962;2023-08-31T10:36:19;16.00;99.90
4749;DHT22;2388;53.582;9.962;2023-08-31T10:41:21;16.20;99.90
4749;DHT22;2388;53.582;9.962;2023-08-31T10:43:51;16.30;99.90
4749;DHT22;2388;53.582;9.962;2023-08-31T10:46:34;16.20;99.90
4749;DHT22;2388;53.582;9.962;2023-08-31T10:51:35;16.30;99.90
4749;DHT22;2388;53.582;9.962;2023-08-31T10:59:42;16.60;99.90
4749;DHT22;2388;53.582;9.962;2023-08-31T11:02:07;16.80;99.90
4749;DHT22;2388;53.582;9.962;2023-08-31T11:04:54;16.70;99.90
4749;DHT22;2388;53.582;9.962;2023-08-31T11:07:23;16.70;99.90
4749;DHT22;2388;53.582;9.962;2023-08-31T11:09:49;16.70;99.90
4749;DHT22;2388;53.582;9.962;2023-08-31T11:12:14;16.80;99.90
4749;DHT22;2388;53.582;9.962;2023-08-31T11:14:40;17.00;99.90
4749;DHT22;2388;53.582;9.962;2023-08-31T11:17:06;17.20;99.90
4749;DHT22;2388;53.582;9.962;2023-08-31T11:19:33;17.40;99.90
4749;DHT22;2388;53.582;9.962;2023-08-31T11:22:00;17.60;99.90
4749;DHT22;2388;53.582;9.962;2023-08-31T11:24:28;17.80;99.90
4749;DHT22;2388;53.582;9.962;2023-08-31T11:26:54;17.90;99.90
4749;DHT22;2388;53.582;9.962;2023-08-31T11:29:21;18.00;99.90
4749;DHT22;2388;53.582;9.962;2023-08-31T11:31:46;18.00;99.90
4749;DHT22;2388;53.582;9.962;2023-08-31T11:34:13;17.90;99.90
4749;DHT22;2388;53.582;9.962;2023-08-31T11:36:44;18.00;99.90
4749;DHT22;2388;53.582;9.962;2023-08-31T11:39:10;18.20;99.90
4749;DHT22;2388;53.582;9.962;2023-08-31T11:41:36;18.50;99.90
4749;DHT22;2388;53.582;9.962;2023-08-31T11:44:11;18.50;99.90
4749;DHT22;2388;53.582;9.962;2023-08-31T11:46:37;18.40;99.90
4749;DHT22;2388;53.582;9.962;2023-08-31T11:49:04;18.30;99.90
4749;DHT22;2388;53.582;9.962;2023-08-31T11:51:33;18.20;99.90
4749;DHT22;2388;53.582;9.962;2023-08-31T11:54:01;18.20;99.90
4749;DHT22;2388;53.582;9.962;2023-08-31T11:56:43;18.10;99.90
4749;DHT22;2388;53.582;9.962;2023-08-31T11:59:15;18.10;99.90
4749;DHT22;2388;53.582;9.962;2023-08-31T12:01:42;18.20;99.90
4749;DHT22;2388;53.582;9.962;2023-08-31T12:04:12;18.20;99.90
4749;DHT22;2388;53.582;9.962;2023-08-31T12:06:38;18.20;99.90
4749;DHT22;2388;53.582;9.962;2023-08-31T12:09:08;18.20;99.90
4749;DHT22;2388;53.582;9.962;2023-08-31T12:11:34;18.10;99.90
4749;DHT22;2388;53.582;9.962;2023-08-31T12:14:06;18.10;99.90
4749;DHT22;2388;53.582;9.962;2023-08-31T12:16:42;18.10;99.90
4749;DHT22;2388;53.582;9.962;2023-08-31T12:19:09;18.00;99.90
4749;DHT22;2388;53.582;9.962;2023-08-31T12:21:35;17.90;99.90
4749;DHT22;2388;53.582;9.962;2023-08-31T12:24:00;17.80;99.90
4749;DHT22;2388;53.582;9.962;2023-08-31T12:26:26;17.80;99.90
4749;DHT22;2388;53.582;9.962;2023-08-31T12:28:52;17.80;99.90
4749;DHT22;2388;53.582;9.962;2023-08-31T12:31:17;17.70;99.90
4749;DHT22;2388;53.582;9.962;2023-08-31T12:33:43;17.70;99.90
4749;DHT22;2388;53.582;9.962;2023-08-31T12:36:09;17.60;99.90
4749;DHT22;2388;53.582;9.962;2023-08-31T12:38:34;17.60;99.90
4749;DHT22;2388;53.582;9.962;2023-08-31T12:40:59;17.30;99.90
4749;DHT22;2388;53.582;9.962;2023-08-31T12:43:27;16.70;99.90
4749;DHT22;2388;53.582;9.962;2023-08-31T12:45:54;16.10;99.90
4749;DHT22;2388;53.582;9.962;2023-08-31T12:48:19;15.90;99.90
4749;DHT22;2388;53.582;9.962;2023-08-31T12:50:45;15.70;99.90
4749;DHT22;2388;53.582;9.962;2023-08-31T12:53:11;15.50;99.90
4749;DHT22;2388;53.582;9.962;2023-08-31T12:55:36;15.40;99.90
4749;DHT22;2388;53.582;9.962;2023-08-31T12:58:01;15.40;99.90
4749;DHT22;2388;53.582;9.962;2023-08-31T13:00:27;15.40;99.90
4749;DHT22;2388;53.582;9.962;2023-08-31T13:02:53;15.50;99.90
4749;DHT22;2388;53.582;9.962;2023-08-31T13:05:18;15.50;99.90
4749;DHT22;2388;53.582;9.962;2023-08-31T13:07:45;15.60;99.90
4749;DHT22;2388;53.582;9.962;2023-08-31T13:10:10;15.80;99.90
4749;DHT22;2388;53.582;9.962;2023-08-31T13:12:36;15.90;99.90
4749;DHT22;2388;53.582;9.962;2023-08-31T13:15:02;15.90;99.90
4749;DHT22;2388;53.582;9.962;2023-08-31T13:17:28;16.00;99.90
4749;DHT22;2388;53.582;9.962;2023-08-31T13:19:54;16.20;99.90
4749;DHT22;2388;53.582;9.962;2023-08-31T13:22:21;16.30;99.90
4749;DHT22;2388;53.582;9.962;2023-08-31T13:24:46;16.30;99.90
4749;DHT22;2388;53.582;9.962;2023-08-31T13:27:12;16.40;99.90
4749;DHT22;2388;53.582;9.962;2023-08-31T13:29:42;16.50;99.90
4749;DHT22;2388;53.582;9.962;2023-08-31T13:32:08;16.60;99.90
4749;DHT22;2388;53.582;9.962;2023-08-31T13:34:34;16.60;99.90
4749;DHT22;2388;53.582;9.962;2023-08-31T13:37:00;16.60;99.90
4749;DHT22;2388;53.582;9.962;2023-08-31T13:39:33;16.70;99.90
4749;DHT22;2388;53.582;9.962;2023-08-31T13:41:59;16.80;99.90
4749;DHT22;2388;53.582;9.962;2023-08-31T13:44:27;16.80;99.90
4749;DHT22;2388;53.582;9.962;2023-08-31T13:46:52;16.80;99.90
4749;DHT22;2388;53.582;9.962;2023-08-31T13:49:18;16.60;99.90
4749;DHT22;2388;53.582;9.962;2023-08-31T13:51:43;16.60;99.90
4749;DHT22;2388;53.582;9.962;2023-08-31T13:54:11;16.60;99.90
4749;DHT22;2388;53.582;9.962;2023-08-31T13:56:37;16.60;99.90
4749;DHT22;2388;53.582;9.962;2023-08-31T13:59:02;16.60;99.90
4749;DHT22;2388;53.582;9.962;2023-08-31T14:01:28;16.60;99.90
4749;DHT22;2388;53.582;9.962;2023-08-31T14:03:53;16.70;99.90
4749;DHT22;2388;53.582;9.962;2023-08-31T14:06:19;16.70;99.90
4749;DHT22;2388;53.582;9.962;2023-08-31T14:08:44;16.70;99.90
4749;DHT22;2388;53.582;9.962;2023-08-31T14:11:10;16.60;99.90
4749;DHT22;2388;53.582;9.962;2023-08-31T14:13:35;16.50;99.90
4749;DHT22;2388;53.582;9.962;2023-08-31T14:16:01;16.50;99.90
4749;DHT22;2388;53.582;9.962;2023-08-31T14:18:27;16.50;99.90
4749;DHT22;2388;53.582;9.962;2023-08-31T14:20:57;16.50;99.90
4749;DHT22;2388;53.582;9.962;2023-08-31T14:23:24;16.50;99.90
4749;DHT22;2388;53.582;9.962;2023-08-31T14:25:50;16.50;99.90
4749;DHT22;2388;53.582;9.962;2023-08-31T14:28:15;16.50;99.90
4749;DHT22;2388;53.582;9.962;2023-08-31T14:30:41;16.50;99.90
4749;DHT22;2388;53.582;9.962;2023-08-31T14:33:06;16.60;99.90
4749;DHT22;2388;53.582;9.962;2023-08-31T14:35:35;16.60;99.90
4749;DHT22;2388;53.582;9.962;2023-08-31T14:38:01;16.70;99.90
4749;DHT22;2388;53.582;9.962;2023-08-31T14:40:27;16.70;99.90
4749;DHT22;2388;53.582;9.962;2023-08-31T14:42:52;16.70;99.90
4749;DHT22;2388;53.582;9.962;2023-08-31T14:45:18;16.70;99.90
4749;DHT22;2388;53.582;9.962;2023-08-31T14:47:43;16.70;99.90
4749;DHT22;2388;53.582;9.962;2023-08-31T14:50:09;16.70;99.90
4749;DHT22;2388;53.582;9.962;2023-08-31T14:52:34;16.80;99.90
4749;DHT22;2388;53.582;9.962;2023-08-31T14:55:00;16.90;99.90
4749;DHT22;2388;53.582;9.962;2023-08-31T14:57:26;16.90;99.90
4749;DHT22;2388;53.582;9.962;2023-08-31T14:59:51;17.00;99.90
4749;DHT22;2388;53.582;9.962;2023-08-31T15:02:19;17.10;99.90
4749;DHT22;2388;53.582;9.962;2023-08-31T15:04:47;17.10;99.90
4749;DHT22;2388;53.582;9.962;2023-08-31T15:07:15;17.10;99.90
4749;DHT22;2388;53.582;9.962;2023-08-31T15:09:40;17.10;99.90
4749;DHT22;2388;53.582;9.962;2023-08-31T15:12:07;17.10;99.90
4749;DHT22;2388;53.582;9.962;2023-08-31T15:14:32;17.00;99.90
4749;DHT22;2388;53.582;9.962;2023-08-31T15:16:58;17.00;99.90
4749;DHT22;2388;53.582;9.962;2023-08-31T15:19:24;16.90;99.90
4749;DHT22;2388;53.582;9.962;2023-08-31T15:21:49;16.90;99.90
4749;DHT22;2388;53.582;9.962;2023-08-31T15:24:15;16.90;99.90
4749;DHT22;2388;53.582;9.962;2023-08-31T15:26:40;16.80;99.90
4749;DHT22;2388;53.582;9.962;2023-08-31T15:29:06;16.90;99.90
4749;DHT22;2388;53.582;9.962;2023-08-31T15:31:31;16.90;99.90
4749;DHT22;2388;53.582;9.962;2023-08-31T15:33:57;16.90;99.90
4749;DHT22;2388;53.582;9.962;2023-08-31T15:36:23;16.80;99.90
4749;DHT22;2388;53.582;9.962;2023-08-31T15:38:48;16.80;99.90
4749;DHT22;2388;53.582;9.962;2023-08-31T15:41:14;16.80;99.90
4749;DHT22;2388;53.582;9.962;2023-08-31T15:43:40;16.90;99.90
4749;DHT22;2388;53.582;9.962;2023-08-31T15:46:07;16.80;99.90
4749;DHT22;2388;53.582;9.962;2023-08-31T15:48:33;16.80;99.90
4749;DHT22;2388;53.582;9.962;2023-08-31T15:51:00;16.80;99.90
4749;DHT22;2388;53.582;9.962;2023-08-31T15:53:26;16.80;99.90
4749;DHT22;2388;53.582;9.962;2023-08-31T15:55:53;16.80;99.90
4749;DHT22;2388;53.582;9.962;2023-08-31T15:58:18;16.80;99.90
4749;DHT22;2388;53.582;9.962;2023-08-31T16:00:44;16.80;99.90
4749;DHT22;2388;53.582;9.962;2023-08-31T16:03:10;16.80;99.90
4749;DHT22;2388;53.582;9.962;2023-08-31T16:05:36;16.80;99.90
4749;DHT22;2388;53.582;9.962;2023-08-31T16:08:02;16.80;99.90
4749;DHT22;2388;53.582;9.962;2023-08-31T16:10:28;16.80;99.90
4749;DHT22;2388;53.582;9.962;2023-08-31T16:12:54;16.90;99.90
4749;DHT22;2388;53.582;9.962;2023-08-31T16:15:19;16.90;99.90